KEKO/EKO METAR and TAF weather

Enter ICAO airport designator
Station Type Date Time Source
KEKO METAR 2020/06/02 16:56 UTC NOAA

KEKO 021656Z AUTO 00000KT 10SM CLR 22/07 A3024 RMK AO2 SLP191 T02220067


Station Type Date Time Source
KEKO Decoded METAR 2020/06/02 16:56 UTC NOAA

ELKO REGIONAL AIRPORT, NV, United States (KEKO) 40-50N 115-47W 1547M
Jun 02, 2020 - 12:56 PM EDT / 2020.06.02 1656 UTC
Wind: Calm:0
Visibility: 10 mile(s):0
Sky conditions: clear
Temperature: 72.0 F (22.2 C)
Dew Point: 44.1 F (6.7 C)
Relative Humidity: 36%
Pressure (altimeter): 30.24 in. Hg (1024 hPa)
ob: KEKO 021656Z AUTO 00000KT 10SM CLR 22/07 A3024 RMK AO2 SLP191 T02220067
cycle: 17

Station Type Date Time Source
KEKO TAF 2020/06/02 18:42 UTC NOAA

TAF KEKO 021740Z 0218/0318 VRB03KT P6SM SCT200
FM022000 23008KT P6SM FEW120 BKN200
FM022200 25012G22KT P6SM FEW120 BKN200
FM030300 07003KT P6SM FEW250

Example: see airport list